sensor_id;sensor_type;location;lat;lon;timestamp;temperature;humidity
52321;DHT22;38261;54.090;13.382;2023-06-24T00:01:15;16.30;99.90
52321;DHT22;38261;54.090;13.382;2023-06-24T00:02:37;16.30;99.90
52321;DHT22;38261;54.090;13.382;2023-06-24T00:04:00;16.30;99.90
52321;DHT22;38261;54.090;13.382;2023-06-24T00:05:22;16.30;99.90
52321;DHT22;38261;54.090;13.382;2023-06-24T00:06:44;16.30;99.90
52321;DHT22;38261;54.090;13.382;2023-06-24T00:08:07;16.30;99.90
52321;DHT22;38261;54.090;13.382;2023-06-24T00:09:30;16.20;99.90
52321;DHT22;38261;54.090;13.382;2023-06-24T00:10:52;16.20;99.90
52321;DHT22;38261;54.090;13.382;2023-06-24T00:12:14;16.20;99.90
52321;DHT22;38261;54.090;13.382;2023-06-24T00:13:41;16.20;99.90
52321;DHT22;38261;54.090;13.382;2023-06-24T00:15:05;16.20;99.90
52321;DHT22;38261;54.090;13.382;2023-06-24T00:16:27;16.20;99.90
52321;DHT22;38261;54.090;13.382;2023-06-24T00:17:50;16.10;99.90
52321;DHT22;38261;54.090;13.382;2023-06-24T00:19:12;16.10;99.90
52321;DHT22;38261;54.090;13.382;2023-06-24T00:20:34;16.10;99.90
52321;DHT22;38261;54.090;13.382;2023-06-24T00:21:57;16.10;99.90
52321;DHT22;38261;54.090;13.382;2023-06-24T00:23:22;16.10;99.90
52321;DHT22;38261;54.090;13.382;2023-06-24T00:24:47;16.00;99.90
52321;DHT22;38261;54.090;13.382;2023-06-24T00:26:09;16.00;99.90
52321;DHT22;38261;54.090;13.382;2023-06-24T00:27:32;16.00;99.90
52321;DHT22;38261;54.090;13.382;2023-06-24T00:28:54;16.00;99.90
52321;DHT22;38261;54.090;13.382;2023-06-24T00:30:16;16.00;99.90
52321;DHT22;38261;54.090;13.382;2023-06-24T00:31:38;15.90;99.90
52321;DHT22;38261;54.090;13.382;2023-06-24T00:33:00;15.90;99.90
52321;DHT22;38261;54.090;13.382;2023-06-24T00:34:23;15.90;99.90
52321;DHT22;38261;54.090;13.382;2023-06-24T00:35:46;15.90;99.90
52321;DHT22;38261;54.090;13.382;2023-06-24T00:37:09;15.90;99.90
52321;DHT22;38261;54.090;13.382;2023-06-24T00:38:31;15.90;99.90
52321;DHT22;38261;54.090;13.382;2023-06-24T00:39:54;15.90;99.90
52321;DHT22;38261;54.090;13.382;2023-06-24T00:41:19;15.90;99.90
52321;DHT22;38261;54.090;13.382;2023-06-24T00:42:44;15.80;99.90
52321;DHT22;38261;54.090;13.382;2023-06-24T00:44:07;15.80;99.90
52321;DHT22;38261;54.090;13.382;2023-06-24T00:45:29;15.80;99.90
52321;DHT22;38261;54.090;13.382;2023-06-24T00:46:54;15.80;99.90
52321;DHT22;38261;54.090;13.382;2023-06-24T00:48:16;15.70;99.90
52321;DHT22;38261;54.090;13.382;2023-06-24T00:49:39;15.70;99.90
52321;DHT22;38261;54.090;13.382;2023-06-24T00:51:01;15.70;99.90
52321;DHT22;38261;54.090;13.382;2023-06-24T00:52:23;15.70;99.90
52321;DHT22;38261;54.090;13.382;2023-06-24T00:53:45;15.70;99.90
52321;DHT22;38261;54.090;13.382;2023-06-24T00:55:15;15.70;99.90
52321;DHT22;38261;54.090;13.382;2023-06-24T00:56:37;15.70;99.90
52321;DHT22;38261;54.090;13.382;2023-06-24T00:58:04;15.70;99.90
52321;DHT22;38261;54.090;13.382;2023-06-24T00:59:27;15.60;99.90
52321;DHT22;38261;54.090;13.382;2023-06-24T01:00:53;15.60;99.90
52321;DHT22;38261;54.090;13.382;2023-06-24T01:02:21;15.60;99.90
52321;DHT22;38261;54.090;13.382;2023-06-24T01:03:44;15.60;99.90
52321;DHT22;38261;54.090;13.382;2023-06-24T01:05:07;15.60;99.90
52321;DHT22;38261;54.090;13.382;2023-06-24T01:06:30;15.60;99.90
52321;DHT22;38261;54.090;13.382;2023-06-24T01:07:52;15.50;99.90
52321;DHT22;38261;54.090;13.382;2023-06-24T01:09:18;15.50;99.90
52321;DHT22;38261;54.090;13.382;2023-06-24T01:10:40;15.50;99.90
52321;DHT22;38261;54.090;13.382;2023-06-24T01:12:03;15.50;99.90
52321;DHT22;38261;54.090;13.382;2023-06-24T01:13:25;15.50;99.90
52321;DHT22;38261;54.090;13.382;2023-06-24T01:14:47;15.50;99.90
52321;DHT22;38261;54.090;13.382;2023-06-24T01:16:14;15.50;99.90
52321;DHT22;38261;54.090;13.382;2023-06-24T01:21:04;15.50;99.90
52321;DHT22;38261;54.090;13.382;2023-06-24T01:24:31;15.50;99.90
52321;DHT22;38261;54.090;13.382;2023-06-24T01:26:22;15.40;99.90
52321;DHT22;38261;54.090;13.382;2023-06-24T01:29:42;15.40;99.90
52321;DHT22;38261;54.090;13.382;2023-06-24T01:32:56;15.40;99.90
52321;DHT22;38261;54.090;13.382;2023-06-24T01:34:43;15.30;99.90
52321;DHT22;38261;54.090;13.382;2023-06-24T01:36:12;15.40;99.90
52321;DHT22;38261;54.090;13.382;2023-06-24T01:37:45;15.40;99.90
52321;DHT22;38261;54.090;13.382;2023-06-24T01:39:12;15.30;99.90
52321;DHT22;38261;54.090;13.382;2023-06-24T01:40:46;15.30;99.90
52321;DHT22;38261;54.090;13.382;2023-06-24T01:42:11;15.30;99.90
52321;DHT22;38261;54.090;13.382;2023-06-24T01:43:35;15.30;99.90
52321;DHT22;38261;54.090;13.382;2023-06-24T01:44:58;15.30;99.90
52321;DHT22;38261;54.090;13.382;2023-06-24T01:46:25;15.30;99.90
52321;DHT22;38261;54.090;13.382;2023-06-24T01:47:48;15.30;99.90
52321;DHT22;38261;54.090;13.382;2023-06-24T01:49:16;15.30;99.90
52321;DHT22;38261;54.090;13.382;2023-06-24T01:50:45;15.30;99.90
52321;DHT22;38261;54.090;13.382;2023-06-24T01:52:10;15.20;99.90
52321;DHT22;38261;54.090;13.382;2023-06-24T01:53:35;15.20;99.90
52321;DHT22;38261;54.090;13.382;2023-06-24T01:54:59;15.20;99.90
52321;DHT22;38261;54.090;13.382;2023-06-24T01:56:23;15.20;99.90
52321;DHT22;38261;54.090;13.382;2023-06-24T01:57:48;15.20;99.90
52321;DHT22;38261;54.090;13.382;2023-06-24T01:59:12;15.20;99.90
52321;DHT22;38261;54.090;13.382;2023-06-24T02:00:35;15.20;99.90
52321;DHT22;38261;54.090;13.382;2023-06-24T02:02:00;15.20;99.90
52321;DHT22;38261;54.090;13.382;2023-06-24T02:03:23;15.20;99.90
52321;DHT22;38261;54.090;13.382;2023-06-24T02:04:48;15.20;99.90
52321;DHT22;38261;54.090;13.382;2023-06-24T02:06:12;15.20;99.90
52321;DHT22;38261;54.090;13.382;2023-06-24T02:07:36;15.20;99.90
52321;DHT22;38261;54.090;13.382;2023-06-24T02:09:00;15.20;99.90
52321;DHT22;38261;54.090;13.382;2023-06-24T02:10:23;15.20;99.90
52321;DHT22;38261;54.090;13.382;2023-06-24T02:11:47;15.20;99.90
52321;DHT22;38261;54.090;13.382;2023-06-24T02:13:11;15.20;99.90
52321;DHT22;38261;54.090;13.382;2023-06-24T02:14:34;15.20;99.90
52321;DHT22;38261;54.090;13.382;2023-06-24T02:15:59;15.20;99.90
52321;DHT22;38261;54.090;13.382;2023-06-24T02:17:24;15.20;99.90
52321;DHT22;38261;54.090;13.382;2023-06-24T02:18:48;15.20;99.90
52321;DHT22;38261;54.090;13.382;2023-06-24T02:20:11;15.20;99.90
52321;DHT22;38261;54.090;13.382;2023-06-24T02:21:35;15.20;99.90
52321;DHT22;38261;54.090;13.382;2023-06-24T02:22:59;15.20;99.90
52321;DHT22;38261;54.090;13.382;2023-06-24T02:24:23;15.20;99.90
52321;DHT22;38261;54.090;13.382;2023-06-24T02:25:46;15.20;99.90
52321;DHT22;38261;54.090;13.382;2023-06-24T02:27:09;15.20;99.90
52321;DHT22;38261;54.090;13.382;2023-06-24T02:28:33;15.20;99.90
52321;DHT22;38261;54.090;13.382;2023-06-24T02:29:57;15.20;99.90
52321;DHT22;38261;54.090;13.382;2023-06-24T02:31:20;15.20;99.90
52321;DHT22;38261;54.090;13.382;2023-06-24T02:32:42;15.20;99.90
52321;DHT22;38261;54.090;13.382;2023-06-24T02:34:05;15.20;99.90
52321;DHT22;38261;54.090;13.382;2023-06-24T02:35:27;15.20;99.90
52321;DHT22;38261;54.090;13.382;2023-06-24T02:36:50;15.20;99.90
52321;DHT22;38261;54.090;13.382;2023-06-24T02:38:12;15.20;99.90
52321;DHT22;38261;54.090;13.382;2023-06-24T02:39:34;15.20;99.90
52321;DHT22;38261;54.090;13.382;2023-06-24T02:40:57;15.20;99.90
52321;DHT22;38261;54.090;13.382;2023-06-24T02:42:20;15.20;99.90
52321;DHT22;38261;54.090;13.382;2023-06-24T02:43:42;15.20;99.90
52321;DHT22;38261;54.090;13.382;2023-06-24T02:45:05;15.20;99.90
52321;DHT22;38261;54.090;13.382;2023-06-24T02:46:28;15.20;99.90
52321;DHT22;38261;54.090;13.382;2023-06-24T02:47:53;15.20;99.90
52321;DHT22;38261;54.090;13.382;2023-06-24T02:49:17;15.30;99.90
52321;DHT22;38261;54.090;13.382;2023-06-24T02:50:41;15.20;99.90
52321;DHT22;38261;54.090;13.382;2023-06-24T02:52:06;15.30;99.90
52321;DHT22;38261;54.090;13.382;2023-06-24T02:53:28;15.30;99.90
52321;DHT22;38261;54.090;13.382;2023-06-24T02:54:50;15.40;99.90
52321;DHT22;38261;54.090;13.382;2023-06-24T02:56:13;15.40;99.90
52321;DHT22;38261;54.090;13.382;2023-06-24T02:57:37;15.40;99.90
52321;DHT22;38261;54.090;13.382;2023-06-24T02:58:59;15.50;99.90
52321;DHT22;38261;54.090;13.382;2023-06-24T03:00:21;15.50;99.90
52321;DHT22;38261;54.090;13.382;2023-06-24T03:01:43;15.60;99.90
52321;DHT22;38261;54.090;13.382;2023-06-24T03:03:07;15.60;99.90
52321;DHT22;38261;54.090;13.382;2023-06-24T03:04:30;15.70;99.90
52321;DHT22;38261;54.090;13.382;2023-06-24T03:05:54;15.70;99.90
52321;DHT22;38261;54.090;13.382;2023-06-24T03:07:18;15.70;99.90
52321;DHT22;38261;54.090;13.382;2023-06-24T03:08:43;15.70;99.90
52321;DHT22;38261;54.090;13.382;2023-06-24T03:10:06;15.80;99.90
52321;DHT22;38261;54.090;13.382;2023-06-24T03:11:28;15.80;99.90
52321;DHT22;38261;54.090;13.382;2023-06-24T03:12:51;15.90;99.90
52321;DHT22;38261;54.090;13.382;2023-06-24T03:14:13;16.00;99.90
52321;DHT22;38261;54.090;13.382;2023-06-24T03:15:36;16.00;99.90
52321;DHT22;38261;54.090;13.382;2023-06-24T03:16:58;16.10;99.90
52321;DHT22;38261;54.090;13.382;2023-06-24T03:18:21;16.10;99.90
52321;DHT22;38261;54.090;13.382;2023-06-24T03:19:43;16.20;99.90
52321;DHT22;38261;54.090;13.382;2023-06-24T03:21:05;16.30;99.90
52321;DHT22;38261;54.090;13.382;2023-06-24T03:22:28;16.30;99.90
52321;DHT22;38261;54.090;13.382;2023-06-24T03:24:55;16.50;99.90
52321;DHT22;38261;54.090;13.382;2023-06-24T03:26:17;16.60;99.90
52321;DHT22;38261;54.090;13.382;2023-06-24T03:27:39;17.00;99.90
52321;DHT22;38261;54.090;13.382;2023-06-24T03:29:02;17.40;99.90
52321;DHT22;38261;54.090;13.382;2023-06-24T03:30:24;17.90;99.90
52321;DHT22;38261;54.090;13.382;2023-06-24T03:31:46;18.40;99.90
52321;DHT22;38261;54.090;13.382;2023-06-24T03:33:09;19.00;99.90
52321;DHT22;38261;54.090;13.382;2023-06-24T03:34:31;19.50;99.90
52321;DHT22;38261;54.090;13.382;2023-06-24T03:35:53;19.90;99.90
52321;DHT22;38261;54.090;13.382;2023-06-24T03:37:16;20.30;99.90
52321;DHT22;38261;54.090;13.382;2023-06-24T03:38:39;20.70;99.90
52321;DHT22;38261;54.090;13.382;2023-06-24T03:40:01;21.00;99.90
52321;DHT22;38261;54.090;13.382;2023-06-24T03:41:23;21.30;99.90
52321;DHT22;38261;54.090;13.382;2023-06-24T03:42:48;21.30;99.90
52321;DHT22;38261;54.090;13.382;2023-06-24T03:44:10;21.50;99.90
52321;DHT22;38261;54.090;13.382;2023-06-24T03:45:32;21.70;99.90
52321;DHT22;38261;54.090;13.382;2023-06-24T03:46:54;21.90;99.90
52321;DHT22;38261;54.090;13.382;2023-06-24T03:48:16;22.20;99.90
52321;DHT22;38261;54.090;13.382;2023-06-24T03:49:38;22.50;99.90
52321;DHT22;38261;54.090;13.382;2023-06-24T03:51:01;22.90;99.90
52321;DHT22;38261;54.090;13.382;2023-06-24T03:52:23;23.20;99.90
52321;DHT22;38261;54.090;13.382;2023-06-24T03:53:45;23.50;99.90
52321;DHT22;38261;54.090;13.382;2023-06-24T03:55:07;23.80;99.90
52321;DHT22;38261;54.090;13.382;2023-06-24T03:56:29;24.10;99.90
52321;DHT22;38261;54.090;13.382;2023-06-24T03:57:52;24.30;99.90
52321;DHT22;38261;54.090;13.382;2023-06-24T03:59:14;24.40;99.90
52321;DHT22;38261;54.090;13.382;2023-06-24T04:00:36;24.60;99.90
52321;DHT22;38261;54.090;13.382;2023-06-24T04:02:02;24.80;99.90
52321;DHT22;38261;54.090;13.382;2023-06-24T04:03:24;25.00;99.90
52321;DHT22;38261;54.090;13.382;2023-06-24T04:04:50;25.20;99.90
52321;DHT22;38261;54.090;13.382;2023-06-24T04:06:13;25.20;99.90
52321;DHT22;38261;54.090;13.382;2023-06-24T04:07:35;25.20;99.90
52321;DHT22;38261;54.090;13.382;2023-06-24T04:08:57;25.20;99.90
52321;DHT22;38261;54.090;13.382;2023-06-24T04:10:20;25.20;99.90
52321;DHT22;38261;54.090;13.382;2023-06-24T04:11:42;25.30;99.90
52321;DHT22;38261;54.090;13.382;2023-06-24T04:13:04;25.20;99.90
52321;DHT22;38261;54.090;13.382;2023-06-24T04:14:27;25.20;99.90
52321;DHT22;38261;54.090;13.382;2023-06-24T04:15:49;25.50;99.90
52321;DHT22;38261;54.090;13.382;2023-06-24T04:17:11;25.60;99.90
52321;DHT22;38261;54.090;13.382;2023-06-24T04:18:33;25.60;99.90
52321;DHT22;38261;54.090;13.382;2023-06-24T04:19:56;25.50;99.90
52321;DHT22;38261;54.090;13.382;2023-06-24T04:21:18;25.00;99.90
52321;DHT22;38261;54.090;13.382;2023-06-24T04:22:41;24.40;99.90
52321;DHT22;38261;54.090;13.382;2023-06-24T04:24:04;23.70;99.90
52321;DHT22;38261;54.090;13.382;2023-06-24T04:25:26;22.90;99.90
52321;DHT22;38261;54.090;13.382;2023-06-24T04:26:48;22.10;99.90
52321;DHT22;38261;54.090;13.382;2023-06-24T04:28:10;21.50;99.90
52321;DHT22;38261;54.090;13.382;2023-06-24T04:29:33;21.00;99.90
52321;DHT22;38261;54.090;13.382;2023-06-24T04:30:55;20.50;99.90
52321;DHT22;38261;54.090;13.382;2023-06-24T04:32:17;20.20;99.90
52321;DHT22;38261;54.090;13.382;2023-06-24T04:33:39;19.90;99.90
52321;DHT22;38261;54.090;13.382;2023-06-24T04:35:02;19.80;99.90
52321;DHT22;38261;54.090;13.382;2023-06-24T04:36:24;19.90;99.90
52321;DHT22;38261;54.090;13.382;2023-06-24T04:37:46;19.90;99.90
52321;DHT22;38261;54.090;13.382;2023-06-24T04:39:11;19.80;99.90
52321;DHT22;38261;54.090;13.382;2023-06-24T04:40:33;19.70;99.90
52321;DHT22;38261;54.090;13.382;2023-06-24T04:41:55;19.60;99.90
52321;DHT22;38261;54.090;13.382;2023-06-24T04:43:17;19.60;99.90
52321;DHT22;38261;54.090;13.382;2023-06-24T04:44:39;19.70;99.90
52321;DHT22;38261;54.090;13.382;2023-06-24T04:46:02;19.90;99.90
52321;DHT22;38261;54.090;13.382;2023-06-24T04:47:24;20.00;99.90
52321;DHT22;38261;54.090;13.382;2023-06-24T04:48:46;20.20;99.90
52321;DHT22;38261;54.090;13.382;2023-06-24T04:50:09;20.70;99.90
52321;DHT22;38261;54.090;13.382;2023-06-24T04:51:34;21.50;99.90
52321;DHT22;38261;54.090;13.382;2023-06-24T04:52:56;22.10;99.90
52321;DHT22;38261;54.090;13.382;2023-06-24T04:54:22;22.60;99.90
52321;DHT22;38261;54.090;13.382;2023-06-24T04:55:44;22.80;99.90
52321;DHT22;38261;54.090;13.382;2023-06-24T04:57:09;22.60;99.90
52321;DHT22;38261;54.090;13.382;2023-06-24T04:58:31;22.40;99.90
52321;DHT22;38261;54.090;13.382;2023-06-24T04:59:54;21.90;99.90
52321;DHT22;38261;54.090;13.382;2023-06-24T05:01:17;21.50;99.90
52321;DHT22;38261;54.090;13.382;2023-06-24T05:02:39;21.20;99.90
52321;DHT22;38261;54.090;13.382;2023-06-24T05:04:02;20.90;99.90
52321;DHT22;38261;54.090;13.382;2023-06-24T05:05:24;20.70;99.90
52321;DHT22;38261;54.090;13.382;2023-06-24T05:06:47;20.50;99.90
52321;DHT22;38261;54.090;13.382;2023-06-24T05:08:09;20.40;99.90
52321;DHT22;38261;54.090;13.382;2023-06-24T05:09:31;20.30;99.90
52321;DHT22;38261;54.090;13.382;2023-06-24T05:10:53;20.20;99.90
52321;DHT22;38261;54.090;13.382;2023-06-24T05:12:15;20.10;99.90
52321;DHT22;38261;54.090;13.382;2023-06-24T05:13:37;19.90;99.90
52321;DHT22;38261;54.090;13.382;2023-06-24T05:15:00;19.70;99.90
52321;DHT22;38261;54.090;13.382;2023-06-24T05:16:22;19.60;99.90
52321;DHT22;38261;54.090;13.382;2023-06-24T05:17:46;19.50;99.90
52321;DHT22;38261;54.090;13.382;2023-06-24T05:19:08;19.40;99.90
52321;DHT22;38261;54.090;13.382;2023-06-24T05:20:30;19.30;99.90
52321;DHT22;38261;54.090;13.382;2023-06-24T05:21:52;19.40;99.90
52321;DHT22;38261;54.090;13.382;2023-06-24T05:23:14;19.40;99.90
52321;DHT22;38261;54.090;13.382;2023-06-24T05:24:36;19.50;99.90
52321;DHT22;38261;54.090;13.382;2023-06-24T05:25:59;19.80;99.90
52321;DHT22;38261;54.090;13.382;2023-06-24T05:27:21;20.30;99.90
52321;DHT22;38261;54.090;13.382;2023-06-24T05:28:43;21.10;99.90
52321;DHT22;38261;54.090;13.382;2023-06-24T05:30:06;21.80;99.90
52321;DHT22;38261;54.090;13.382;2023-06-24T05:31:28;22.50;99.90
52321;DHT22;38261;54.090;13.382;2023-06-24T05:32:50;23.00;99.90
52321;DHT22;38261;54.090;13.382;2023-06-24T05:34:12;23.50;99.90
52321;DHT22;38261;54.090;13.382;2023-06-24T05:35:35;24.00;99.90
52321;DHT22;38261;54.090;13.382;2023-06-24T05:36:59;24.40;99.90
52321;DHT22;38261;54.090;13.382;2023-06-24T05:38:21;24.70;99.90
52321;DHT22;38261;54.090;13.382;2023-06-24T05:39:43;25.30;99.90
52321;DHT22;38261;54.090;13.382;2023-06-24T05:41:05;25.90;99.90
52321;DHT22;38261;54.090;13.382;2023-06-24T05:42:27;26.10;99.90
52321;DHT22;38261;54.090;13.382;2023-06-24T05:44:00;26.20;99.90
52321;DHT22;38261;54.090;13.382;2023-06-24T05:45:22;26.50;99.90
52321;DHT22;38261;54.090;13.382;2023-06-24T05:46:45;27.00;99.90
52321;DHT22;38261;54.090;13.382;2023-06-24T05:48:07;27.10;99.90
52321;DHT22;38261;54.090;13.382;2023-06-24T05:49:29;26.60;99.90
52321;DHT22;38261;54.090;13.382;2023-06-24T05:50:51;26.30;99.90
52321;DHT22;38261;54.090;13.382;2023-06-24T05:52:13;26.20;99.90
52321;DHT22;38261;54.090;13.382;2023-06-24T05:53:35;26.10;99.90
52321;DHT22;38261;54.090;13.382;2023-06-24T05:54:58;25.70;99.90
52321;DHT22;38261;54.090;13.382;2023-06-24T05:56:20;25.50;99.90
52321;DHT22;38261;54.090;13.382;2023-06-24T05:57:43;25.30;99.90
52321;DHT22;38261;54.090;13.382;2023-06-24T05:59:06;25.40;99.90
52321;DHT22;38261;54.090;13.382;2023-06-24T06:00:28;25.50;99.90
52321;DHT22;38261;54.090;13.382;2023-06-24T06:01:50;26.10;99.90
52321;DHT22;38261;54.090;13.382;2023-06-24T06:03:12;26.70;99.90
52321;DHT22;38261;54.090;13.382;2023-06-24T06:04:35;27.00;99.90
52321;DHT22;38261;54.090;13.382;2023-06-24T06:05:57;27.20;99.90
52321;DHT22;38261;54.090;13.382;2023-06-24T06:07:19;27.70;99.90
52321;DHT22;38261;54.090;13.382;2023-06-24T06:08:41;28.10;99.90
52321;DHT22;38261;54.090;13.382;2023-06-24T06:10:04;28.20;99.90
52321;DHT22;38261;54.090;13.382;2023-06-24T06:11:27;28.30;99.90
52321;DHT22;38261;54.090;13.382;2023-06-24T06:12:49;28.20;99.90
52321;DHT22;38261;54.090;13.382;2023-06-24T06:14:11;27.50;99.90
52321;DHT22;38261;54.090;13.382;2023-06-24T06:15:33;27.00;99.90
52321;DHT22;38261;54.090;13.382;2023-06-24T06:16:56;26.90;99.90
52321;DHT22;38261;54.090;13.382;2023-06-24T06:18:18;26.60;99.90
52321;DHT22;38261;54.090;13.382;2023-06-24T06:19:40;26.30;99.90
52321;DHT22;38261;54.090;13.382;2023-06-24T06:21:03;26.70;99.90
52321;DHT22;38261;54.090;13.382;2023-06-24T06:22:25;27.00;99.90
52321;DHT22;38261;54.090;13.382;2023-06-24T06:23:47;26.80;99.90
52321;DHT22;38261;54.090;13.382;2023-06-24T06:25:09;26.00;99.90
52321;DHT22;38261;54.090;13.382;2023-06-24T06:26:31;25.30;99.90
52321;DHT22;38261;54.090;13.382;2023-06-24T06:27:53;24.70;99.90
52321;DHT22;38261;54.090;13.382;2023-06-24T06:29:15;23.90;99.90
52321;DHT22;38261;54.090;13.382;2023-06-24T06:30:38;23.60;99.90
52321;DHT22;38261;54.090;13.382;2023-06-24T06:32:00;23.40;99.90
52321;DHT22;38261;54.090;13.382;2023-06-24T06:33:23;23.20;99.90
52321;DHT22;38261;54.090;13.382;2023-06-24T06:34:45;23.20;99.90
52321;DHT22;38261;54.090;13.382;2023-06-24T06:36:07;23.00;99.90
52321;DHT22;38261;54.090;13.382;2023-06-24T06:37:29;22.70;99.90
52321;DHT22;38261;54.090;13.382;2023-06-24T06:38:51;22.50;99.90
52321;DHT22;38261;54.090;13.382;2023-06-24T06:40:13;22.10;99.90
52321;DHT22;38261;54.090;13.382;2023-06-24T06:41:35;21.80;99.90
52321;DHT22;38261;54.090;13.382;2023-06-24T06:42:58;21.40;99.90
52321;DHT22;38261;54.090;13.382;2023-06-24T06:44:20;21.30;99.90
52321;DHT22;38261;54.090;13.382;2023-06-24T06:45:43;21.20;99.90
52321;DHT22;38261;54.090;13.382;2023-06-24T06:47:05;21.20;99.90
52321;DHT22;38261;54.090;13.382;2023-06-24T06:48:28;21.30;99.90
52321;DHT22;38261;54.090;13.382;2023-06-24T06:49:50;21.40;99.90
52321;DHT22;38261;54.090;13.382;2023-06-24T06:51:13;21.50;99.90
52321;DHT22;38261;54.090;13.382;2023-06-24T06:52:35;21.70;99.90
52321;DHT22;38261;54.090;13.382;2023-06-24T06:53:57;21.50;99.90
52321;DHT22;38261;54.090;13.382;2023-06-24T06:55:19;21.40;99.90
52321;DHT22;38261;54.090;13.382;2023-06-24T06:56:41;21.40;99.90
52321;DHT22;38261;54.090;13.382;2023-06-24T06:58:03;21.40;99.90
52321;DHT22;38261;54.090;13.382;2023-06-24T06:59:25;21.40;99.90
52321;DHT22;38261;54.090;13.382;2023-06-24T07:00:48;21.50;99.90
52321;DHT22;38261;54.090;13.382;2023-06-24T07:02:10;21.40;99.90
52321;DHT22;38261;54.090;13.382;2023-06-24T07:03:32;21.40;99.90
52321;DHT22;38261;54.090;13.382;2023-06-24T07:04:54;21.40;99.90
52321;DHT22;38261;54.090;13.382;2023-06-24T07:06:18;21.30;99.90
52321;DHT22;38261;54.090;13.382;2023-06-24T07:07:41;21.30;99.90
52321;DHT22;38261;54.090;13.382;2023-06-24T07:09:05;21.20;99.90
52321;DHT22;38261;54.090;13.382;2023-06-24T07:10:29;21.10;99.90
52321;DHT22;38261;54.090;13.382;2023-06-24T07:11:51;21.30;99.90
52321;DHT22;38261;54.090;13.382;2023-06-24T07:13:13;21.20;99.90
52321;DHT22;38261;54.090;13.382;2023-06-24T07:14:36;21.10;99.90
52321;DHT22;38261;54.090;13.382;2023-06-24T07:15:58;20.90;99.90
52321;DHT22;38261;54.090;13.382;2023-06-24T07:17:20;20.90;99.90
52321;DHT22;38261;54.090;13.382;2023-06-24T07:18:42;20.80;99.90
52321;DHT22;38261;54.090;13.382;2023-06-24T07:20:05;20.80;99.90
52321;DHT22;38261;54.090;13.382;2023-06-24T07:21:27;20.80;99.90
52321;DHT22;38261;54.090;13.382;2023-06-24T07:22:49;20.90;99.90
52321;DHT22;38261;54.090;13.382;2023-06-24T07:24:11;21.20;99.90
52321;DHT22;38261;54.090;13.382;2023-06-24T07:25:33;21.60;99.90
52321;DHT22;38261;54.090;13.382;2023-06-24T07:26:57;21.90;99.90
52321;DHT22;38261;54.090;13.382;2023-06-24T07:28:19;22.00;99.90
52321;DHT22;38261;54.090;13.382;2023-06-24T07:29:41;21.90;99.90
52321;DHT22;38261;54.090;13.382;2023-06-24T07:31:03;21.70;99.90
52321;DHT22;38261;54.090;13.382;2023-06-24T07:32:25;21.50;99.90
52321;DHT22;38261;54.090;13.382;2023-06-24T07:33:47;21.30;99.90
52321;DHT22;38261;54.090;13.382;2023-06-24T07:35:10;21.40;99.90
52321;DHT22;38261;54.090;13.382;2023-06-24T07:36:32;21.40;99.90
52321;DHT22;38261;54.090;13.382;2023-06-24T07:37:54;21.60;99.90
52321;DHT22;38261;54.090;13.382;2023-06-24T07:39:17;21.60;99.90
52321;DHT22;38261;54.090;13.382;2023-06-24T07:40:39;21.60;99.90
52321;DHT22;38261;54.090;13.382;2023-06-24T07:42:01;21.40;99.90
52321;DHT22;38261;54.090;13.382;2023-06-24T07:43:23;21.20;99.90
52321;DHT22;38261;54.090;13.382;2023-06-24T07:44:46;21.20;99.90
52321;DHT22;38261;54.090;13.382;2023-06-24T07:46:08;21.30;99.90
52321;DHT22;38261;54.090;13.382;2023-06-24T07:47:30;21.50;99.90
52321;DHT22;38261;54.090;13.382;2023-06-24T07:48:54;21.60;99.90
52321;DHT22;38261;54.090;13.382;2023-06-24T07:50:16;21.80;99.90
52321;DHT22;38261;54.090;13.382;2023-06-24T07:51:38;21.80;99.90
52321;DHT22;38261;54.090;13.382;2023-06-24T07:53:00;21.80;99.90
52321;DHT22;38261;54.090;13.382;2023-06-24T07:54:22;21.70;99.90
52321;DHT22;38261;54.090;13.382;2023-06-24T07:55:44;21.50;99.90
52321;DHT22;38261;54.090;13.382;2023-06-24T07:57:07;21.40;99.90
52321;DHT22;38261;54.090;13.382;2023-06-24T07:58:29;21.40;99.90
52321;DHT22;38261;54.090;13.382;2023-06-24T07:59:51;21.40;99.90
52321;DHT22;38261;54.090;13.382;2023-06-24T08:01:13;21.50;99.90
52321;DHT22;38261;54.090;13.382;2023-06-24T08:02:35;21.60;99.90
52321;DHT22;38261;54.090;13.382;2023-06-24T08:03:58;21.50;99.90
52321;DHT22;38261;54.090;13.382;2023-06-24T08:05:20;21.50;99.90
52321;DHT22;38261;54.090;13.382;2023-06-24T08:06:42;21.50;99.90
52321;DHT22;38261;54.090;13.382;2023-06-24T08:08:05;21.40;99.90
52321;DHT22;38261;54.090;13.382;2023-06-24T08:09:28;21.30;99.90
52321;DHT22;38261;54.090;13.382;2023-06-24T08:10:50;21.20;99.90
52321;DHT22;38261;54.090;13.382;2023-06-24T08:12:12;21.20;99.90
52321;DHT22;38261;54.090;13.382;2023-06-24T08:13:34;21.30;99.90
52321;DHT22;38261;54.090;13.382;2023-06-24T08:14:56;21.60;99.90
52321;DHT22;38261;54.090;13.382;2023-06-24T08:16:18;21.70;99.90
52321;DHT22;38261;54.090;13.382;2023-06-24T08:17:42;21.70;99.90
52321;DHT22;38261;54.090;13.382;2023-06-24T08:19:04;21.60;99.90
52321;DHT22;38261;54.090;13.382;2023-06-24T08:20:26;21.70;99.90
52321;DHT22;38261;54.090;13.382;2023-06-24T08:21:48;21.70;99.90
52321;DHT22;38261;54.090;13.382;2023-06-24T08:23:10;21.70;99.90
52321;DHT22;38261;54.090;13.382;2023-06-24T08:24:32;21.70;99.90
52321;DHT22;38261;54.090;13.382;2023-06-24T08:25:55;21.70;99.90
52321;DHT22;38261;54.090;13.382;2023-06-24T08:27:33;21.80;99.90
52321;DHT22;38261;54.090;13.382;2023-06-24T08:28:55;22.00;99.90
52321;DHT22;38261;54.090;13.382;2023-06-24T08:30:18;22.20;99.90
52321;DHT22;38261;54.090;13.382;2023-06-24T08:31:40;22.30;99.90
52321;DHT22;38261;54.090;13.382;2023-06-24T08:33:02;22.40;99.90
52321;DHT22;38261;54.090;13.382;2023-06-24T08:34:25;22.20;99.90
52321;DHT22;38261;54.090;13.382;2023-06-24T08:35:48;22.00;99.90
52321;DHT22;38261;54.090;13.382;2023-06-24T08:37:10;21.80;99.90
52321;DHT22;38261;54.090;13.382;2023-06-24T08:38:32;21.70;99.90
52321;DHT22;38261;54.090;13.382;2023-06-24T08:39:54;21.80;99.90
52321;DHT22;38261;54.090;13.382;2023-06-24T08:41:16;21.80;99.90
52321;DHT22;38261;54.090;13.382;2023-06-24T08:42:38;21.90;99.90
52321;DHT22;38261;54.090;13.382;2023-06-24T08:44:01;21.90;99.90
52321;DHT22;38261;54.090;13.382;2023-06-24T08:45:23;22.00;99.90
52321;DHT22;38261;54.090;13.382;2023-06-24T08:46:45;22.40;99.90